Time;durP1;ratioP1;P1;durP2;ratioP2;P2;SDS_P1;SDS_P2;PMS_P1;PMS_P2;Temp;Humidity;BMP_temperature;BMP_pressure;BME280_temperature;BME280_humidity;BME280_pressure;Samples;Min_cycle;Max_cycle;Signal;HPM_P1;HPM_P2
2022/07/24 00:00:16;;;;;;;6.53;5.18;;;15.50;99.90;;;;;;4974507;28;20061;-72
2022/07/24 00:02:42;;;;;;;6.32;5.50;;;15.50;99.90;;;;;;5028779;28;20048;-72
2022/07/24 00:05:09;;;;;;;5.82;5.22;;;15.50;99.90;;;;;;4995294;28;20140;-72
2022/07/24 00:07:35;;;;;;;5.57;5.05;;;15.50;99.90;;;;;;4975985;28;20065;-72
2022/07/24 00:10:02;;;;;;;6.45;5.68;;;15.50;99.90;;;;;;5026414;28;20061;-72
2022/07/24 00:12:27;;;;;;;6.40;5.15;;;15.50;99.90;;;;;;5025014;28;20038;-72
2022/07/24 00:14:54;;;;;;;6.28;5.63;;;15.40;99.90;;;;;;5024133;28;20060;-72
2022/07/24 00:17:19;;;;;;;7.00;5.97;;;15.40;99.90;;;;;;5025305;28;20072;-72
2022/07/24 00:19:45;;;;;;;6.30;5.75;;;15.40;99.90;;;;;;5027706;28;20478;-72
2022/07/24 00:22:11;;;;;;;8.30;6.47;;;15.40;99.90;;;;;;4995132;28;20462;-72
2022/07/24 00:24:36;;;;;;;6.63;5.70;;;15.40;99.90;;;;;;5025524;28;20488;-72
2022/07/24 00:27:02;;;;;;;5.88;5.28;;;15.40;99.90;;;;;;5026218;28;20461;-72
2022/07/24 00:29:28;;;;;;;6.57;5.93;;;15.40;99.90;;;;;;4991414;28;20046;-72
2022/07/24 00:31:54;;;;;;;7.25;6.18;;;15.40;99.90;;;;;;5025785;28;20109;-72
2022/07/24 00:34:20;;;;;;;7.68;5.78;;;15.30;99.90;;;;;;5029309;28;20100;-72
2022/07/24 00:36:46;;;;;;;6.95;6.25;;;15.30;99.90;;;;;;5028130;28;20124;-72
2022/07/24 00:39:12;;;;;;;6.75;5.70;;;15.30;99.90;;;;;;4976076;28;20118;-72
2022/07/24 00:41:38;;;;;;;7.60;6.97;;;15.30;99.90;;;;;;5027409;28;20073;-72
2022/07/24 00:44:07;;;;;;;7.65;6.93;;;15.20;99.90;;;;;;4991592;28;20417;-72
2022/07/24 00:46:35;;;;;;;6.47;5.88;;;15.30;99.90;;;;;;4994235;28;20054;-72
2022/07/24 00:49:03;;;;;;;7.90;7.20;;;15.30;99.90;;;;;;4991836;28;20042;-72
2022/07/24 00:51:28;;;;;;;8.32;6.47;;;15.20;99.90;;;;;;5010303;28;20050;-72
2022/07/24 00:53:54;;;;;;;7.45;6.55;;;15.20;99.90;;;;;;5018255;28;20049;-72
2022/07/24 00:56:20;;;;;;;7.80;7.10;;;15.20;99.90;;;;;;5026673;28;20026;-71
2022/07/24 00:58:47;;;;;;;9.00;7.60;;;15.20;99.90;;;;;;5009802;28;20543;-71
2022/07/24 01:01:13;;;;;;;7.53;6.82;;;15.20;99.90;;;;;;5033473;28;20057;-71
2022/07/24 01:03:39;;;;;;;8.05;7.25;;;15.20;99.90;;;;;;4979777;28;20046;-71
2022/07/24 01:06:06;;;;;;;8.10;6.93;;;15.20;99.90;;;;;;4999565;28;20042;-72
2022/07/24 01:08:34;;;;;;;8.40;7.60;;;15.10;99.90;;;;;;4997258;28;20042;-71
2022/07/24 01:11:01;;;;;;;8.13;7.32;;;15.10;99.90;;;;;;4981684;28;20037;-71
2022/07/24 01:13:28;;;;;;;7.97;7.32;;;15.10;99.90;;;;;;4997621;28;20038;-73
2022/07/24 01:15:54;;;;;;;9.93;8.10;;;15.10;99.90;;;;;;4997165;28;20188;-71
2022/07/24 01:18:20;;;;;;;8.85;7.95;;;15.00;99.90;;;;;;5028851;28;20128;-71
2022/07/24 01:20:49;;;;;;;8.68;7.95;;;15.00;99.90;;;;;;4992680;28;20049;-71
2022/07/24 01:23:15;;;;;;;8.13;7.43;;;15.00;99.90;;;;;;4998281;28;20045;-71
2022/07/24 01:25:41;;;;;;;9.27;8.23;;;15.00;99.90;;;;;;4995206;28;20056;-71
2022/07/24 01:28:07;;;;;;;8.38;7.57;;;14.90;99.90;;;;;;5009246;28;20659;-73
2022/07/24 01:30:33;;;;;;;8.10;7.40;;;14.90;99.90;;;;;;5027396;28;20037;-72
2022/07/24 01:32:59;;;;;;;8.55;7.75;;;14.90;99.90;;;;;;5031147;28;20034;-72
2022/07/24 01:35:25;;;;;;;8.95;8.00;;;14.90;99.90;;;;;;4995354;28;20034;-72
2022/07/24 01:37:52;;;;;;;8.05;7.25;;;14.80;99.90;;;;;;4999375;28;20128;-72
2022/07/24 01:40:20;;;;;;;9.20;8.00;;;14.80;99.90;;;;;;4980141;28;20061;-72
2022/07/24 01:42:45;;;;;;;9.25;8.38;;;14.80;99.90;;;;;;4981493;28;20045;-72
2022/07/24 01:45:13;;;;;;;10.52;8.48;;;14.80;99.90;;;;;;5000716;28;20053;-72
2022/07/24 01:47:39;;;;;;;9.93;8.95;;;14.80;99.90;;;;;;4996900;28;20585;-73
2022/07/24 01:50:05;;;;;;;11.57;8.63;;;14.80;99.90;;;;;;5014318;28;20541;-72
2022/07/24 01:52:31;;;;;;;8.80;8.00;;;14.70;99.90;;;;;;5011355;28;20095;-72
2022/07/24 01:54:57;;;;;;;10.00;8.20;;;14.70;99.90;;;;;;4996924;28;20046;-72
2022/07/24 01:57:22;;;;;;;9.85;8.55;;;14.80;99.90;;;;;;5031892;28;20524;-72
2022/07/24 01:59:48;;;;;;;8.77;7.97;;;14.70;99.90;;;;;;5010292;28;20054;-72
2022/07/24 02:02:14;;;;;;;8.70;7.90;;;14.70;99.90;;;;;;5014794;28;20119;-72
2022/07/24 02:04:40;;;;;;;8.52;7.82;;;14.70;99.90;;;;;;4978539;28;20049;-72
2022/07/24 02:07:05;;;;;;;9.50;8.27;;;14.70;99.90;;;;;;5028033;28;20045;-72
2022/07/24 02:09:31;;;;;;;9.00;8.20;;;14.80;99.90;;;;;;4989550;28;20126;-72
2022/07/24 02:11:57;;;;;;;8.40;7.57;;;14.80;99.90;;;;;;5028251;28;20038;-72
2022/07/24 02:14:22;;;;;;;7.97;7.28;;;14.80;99.90;;;;;;4997172;28;20040;-72
2022/07/24 02:16:48;;;;;;;9.52;8.55;;;14.80;99.90;;;;;;4994635;28;20071;-72
2022/07/24 02:19:14;;;;;;;8.65;7.75;;;14.70;99.90;;;;;;4996992;28;20375;-72
2022/07/24 02:21:39;;;;;;;8.98;8.23;;;14.80;99.90;;;;;;5026260;28;20092;-72
2022/07/24 02:24:05;;;;;;;9.60;8.25;;;14.80;99.90;;;;;;5031405;28;20533;-72
2022/07/24 02:26:31;;;;;;;8.93;8.05;;;14.80;99.90;;;;;;5027640;28;20041;-72
2022/07/24 02:28:57;;;;;;;9.18;8.32;;;14.80;99.90;;;;;;5013927;28;20437;-72
2022/07/24 02:31:23;;;;;;;9.10;8.20;;;14.80;99.90;;;;;;4995250;28;20046;-72
2022/07/24 02:33:49;;;;;;;8.68;7.78;;;14.80;99.90;;;;;;4999441;28;20092;-72
2022/07/24 02:36:14;;;;;;;8.93;8.13;;;14.80;99.90;;;;;;5026669;28;20038;-72
2022/07/24 02:38:41;;;;;;;8.05;7.38;;;14.80;99.90;;;;;;4999144;28;20042;-72
2022/07/24 02:41:07;;;;;;;9.05;8.13;;;14.80;99.90;;;;;;4995153;28;20385;-72
2022/07/24 02:43:32;;;;;;;10.63;8.85;;;14.80;99.90;;;;;;4996304;28;20118;-72
2022/07/24 02:45:58;;;;;;;8.30;7.43;;;14.80;99.90;;;;;;4996295;28;20034;-72
2022/07/24 02:48:24;;;;;;;9.60;8.70;;;14.80;99.90;;;;;;5025423;28;20100;-72
2022/07/24 02:50:50;;;;;;;8.52;7.72;;;14.80;99.90;;;;;;4995240;28;20442;-72
2022/07/24 02:53:15;;;;;;;8.70;7.82;;;14.80;99.90;;;;;;4994689;28;20046;-72
2022/07/24 02:55:41;;;;;;;8.40;7.60;;;14.90;99.90;;;;;;4996841;28;20176;-72
2022/07/24 02:58:06;;;;;;;9.18;8.20;;;14.80;99.90;;;;;;4994536;28;20042;-72
2022/07/24 03:00:32;;;;;;;8.88;7.97;;;14.80;99.90;;;;;;4996286;28;20049;-72
2022/07/24 03:02:58;;;;;;;9.15;8.00;;;14.80;99.90;;;;;;4999017;28;20056;-73
2022/07/24 03:05:24;;;;;;;38.70;31.52;;;14.80;99.90;;;;;;4975572;28;20081;-72
2022/07/24 03:07:49;;;;;;;13.25;11.85;;;14.80;99.90;;;;;;4996080;28;20038;-72
2022/07/24 03:10:15;;;;;;;9.57;8.00;;;14.80;99.90;;;;;;5024650;28;20520;-72
2022/07/24 03:12:42;;;;;;;9.10;7.32;;;14.80;99.90;;;;;;4978377;28;20386;-72
2022/07/24 03:15:09;;;;;;;7.72;7.03;;;14.80;99.90;;;;;;4996328;28;20034;-72
2022/07/24 03:17:34;;;;;;;8.48;7.47;;;14.80;99.90;;;;;;5027188;28;20363;-72
2022/07/24 03:20:00;;;;;;;8.38;7.57;;;14.80;99.90;;;;;;4993446;28;20056;-72
2022/07/24 03:22:26;;;;;;;9.15;8.02;;;14.80;99.90;;;;;;4991353;28;20057;-72
2022/07/24 03:24:51;;;;;;;8.93;8.05;;;14.80;99.90;;;;;;4990908;28;20049;-72
2022/07/24 03:27:17;;;;;;;9.20;8.27;;;14.80;99.90;;;;;;5023456;28;20119;-72
2022/07/24 03:29:43;;;;;;;9.75;8.73;;;14.70;99.90;;;;;;4991896;28;20056;-72
2022/07/24 03:32:09;;;;;;;9.07;8.25;;;14.70;99.90;;;;;;4996821;28;20041;-73
2022/07/24 03:34:34;;;;;;;9.80;7.25;;;14.70;99.90;;;;;;5024955;28;20045;-72
2022/07/24 03:37:00;;;;;;;8.55;7.70;;;14.70;99.90;;;;;;5011763;28;20091;-72
2022/07/24 03:39:25;;;;;;;8.52;7.72;;;14.70;99.90;;;;;;5005849;28;20642;-72
2022/07/24 03:41:51;;;;;;;9.20;8.43;;;14.70;99.90;;;;;;4997192;28;20042;-73
2022/07/24 03:44:17;;;;;;;8.55;7.82;;;14.70;99.90;;;;;;4994187;28;20490;-72
2022/07/24 03:46:42;;;;;;;8.32;7.53;;;14.80;99.90;;;;;;4997284;28;20450;-72
2022/07/24 03:49:08;;;;;;;10.55;8.02;;;14.80;99.90;;;;;;5025925;28;20049;-72
2022/07/24 03:51:35;;;;;;;10.63;8.18;;;14.80;99.90;;;;;;5030125;28;20037;-73
2022/07/24 03:54:02;;;;;;;9.00;8.10;;;14.80;99.90;;;;;;4993549;28;20054;-72
2022/07/24 03:56:28;;;;;;;9.13;8.23;;;14.80;99.90;;;;;;4995877;28;20044;-72
2022/07/24 03:58:54;;;;;;;8.90;8.10;;;14.80;99.90;;;;;;4993831;28;20045;-72
2022/07/24 04:01:20;;;;;;;8.98;8.02;;;14.80;99.90;;;;;;4991782;28;20057;-72
2022/07/24 04:03:46;;;;;;;8.27;7.45;;;14.90;99.90;;;;;;4995292;28;20049;-72
2022/07/24 04:06:12;;;;;;;8.48;7.68;;;14.90;99.90;;;;;;5026805;28;20107;-72
2022/07/24 04:08:39;;;;;;;9.30;7.53;;;14.90;99.90;;;;;;4993203;28;20685;-72
2022/07/24 04:11:07;;;;;;;8.23;7.43;;;14.90;99.90;;;;;;4994376;28;20037;-72
2022/07/24 04:13:32;;;;;;;8.50;7.80;;;15.00;99.90;;;;;;5009825;28;20087;-72
2022/07/24 04:15:58;;;;;;;8.70;7.68;;;15.00;99.90;;;;;;4991181;28;20594;-72
2022/07/24 04:18:24;;;;;;;8.60;7.82;;;15.00;99.90;;;;;;4979929;28;20493;-72
2022/07/24 04:20:50;;;;;;;9.57;7.75;;;15.00;99.90;;;;;;4992763;28;20038;-72
2022/07/24 04:23:16;;;;;;;8.48;7.65;;;15.00;99.90;;;;;;4995343;28;20054;-72
2022/07/24 04:25:42;;;;;;;8.32;7.63;;;15.10;99.90;;;;;;5006533;28;20630;-72
2022/07/24 04:28:08;;;;;;;8.75;7.50;;;15.10;99.90;;;;;;4992672;28;20128;-72
2022/07/24 04:30:33;;;;;;;8.77;7.90;;;15.10;99.90;;;;;;4993732;28;20099;-72
2022/07/24 04:32:59;;;;;;;8.40;7.60;;;15.10;99.90;;;;;;4994337;28;20041;-72
2022/07/24 04:35:25;;;;;;;8.48;7.65;;;15.10;99.90;;;;;;4995008;28;20378;-73
2022/07/24 04:37:51;;;;;;;8.18;7.43;;;15.10;99.90;;;;;;5012551;28;20037;-73
2022/07/24 04:40:16;;;;;;;8.57;7.78;;;15.20;99.90;;;;;;5000175;28;20080;-73
2022/07/24 04:42:42;;;;;;;8.50;7.70;;;15.20;99.90;;;;;;4978981;28;20618;-73
2022/07/24 04:45:09;;;;;;;8.40;7.60;;;15.20;99.90;;;;;;5026189;28;20037;-73
2022/07/24 04:47:36;;;;;;;8.85;8.02;;;15.30;99.90;;;;;;4994619;28;20047;-72
2022/07/24 04:50:04;;;;;;;8.82;7.53;;;15.30;99.90;;;;;;5023112;28;20042;-73
2022/07/24 04:52:29;;;;;;;8.73;7.93;;;15.40;99.90;;;;;;5008135;28;20065;-72
2022/07/24 04:54:58;;;;;;;8.68;7.97;;;15.40;99.90;;;;;;5009683;28;20038;-72
2022/07/24 04:57:24;;;;;;;9.43;8.43;;;15.50;99.90;;;;;;5024099;28;20045;-72
2022/07/24 04:59:49;;;;;;;10.45;8.88;;;15.60;99.90;;;;;;5021499;28;20117;-72
2022/07/24 05:02:15;;;;;;;8.60;7.80;;;15.70;99.90;;;;;;5022173;28;20054;-72
2022/07/24 05:04:41;;;;;;;8.90;7.30;;;15.90;99.90;;;;;;4992839;28;20061;-72
2022/07/24 05:07:07;;;;;;;9.60;8.50;;;16.00;99.90;;;;;;4991586;28;20121;-72
2022/07/24 05:09:32;;;;;;;8.70;7.82;;;16.10;99.90;;;;;;5030634;28;20042;-72
2022/07/24 05:11:58;;;;;;;8.13;7.32;;;16.40;99.90;;;;;;5024077;28;20070;-72
2022/07/24 05:14:24;;;;;;;10.13;7.55;;;16.60;99.90;;;;;;5029781;28;20046;-72
2022/07/24 05:16:49;;;;;;;9.40;8.38;;;16.80;99.90;;;;;;5024914;28;20061;-72
2022/07/24 05:19:15;;;;;;;9.73;8.00;;;16.90;99.90;;;;;;5029234;28;20053;-72
2022/07/24 05:21:40;;;;;;;11.02;7.55;;;17.00;99.90;;;;;;5025447;28;20108;-72
2022/07/24 05:24:06;;;;;;;8.60;7.75;;;17.40;99.90;;;;;;5030569;28;20042;-72
2022/07/24 05:26:32;;;;;;;10.85;7.80;;;17.70;99.90;;;;;;5027985;28;20112;-72
2022/07/24 05:28:59;;;;;;;8.30;7.60;;;17.70;99.90;;;;;;4993009;28;20045;-72
2022/07/24 05:31:25;;;;;;;8.68;7.88;;;17.90;99.90;;;;;;4974025;28;20057;-72
2022/07/24 05:33:51;;;;;;;9.35;8.45;;;17.90;99.90;;;;;;4991551;28;20046;-72
2022/07/24 05:36:17;;;;;;;9.23;8.32;;;18.00;99.90;;;;;;4994899;28;20030;-72
2022/07/24 05:38:43;;;;;;;10.65;8.60;;;18.00;99.90;;;;;;4991943;28;20483;-72
2022/07/24 05:41:10;;;;;;;10.10;8.93;;;17.90;99.90;;;;;;4978741;28;20546;-72
2022/07/24 05:43:36;;;;;;;9.75;8.75;;;17.90;99.90;;;;;;5007169;28;20077;-72
2022/07/24 05:46:03;;;;;;;12.05;9.00;;;17.80;99.90;;;;;;4997523;28;20124;-72
2022/07/24 05:48:28;;;;;;;10.73;9.73;;;17.90;99.90;;;;;;5024240;28;20056;-73
2022/07/24 05:50:54;;;;;;;10.43;9.27;;;17.90;99.90;;;;;;5012441;28;20062;-73
2022/07/24 05:53:20;;;;;;;10.55;9.65;;;17.90;99.90;;;;;;5025190;28;20078;-73
2022/07/24 05:55:46;;;;;;;10.23;9.23;;;18.00;99.90;;;;;;4994753;28;20084;-73
2022/07/24 05:58:12;;;;;;;10.88;9.85;;;18.10;99.90;;;;;;5026851;28;20038;-72
2022/07/24 06:00:37;;;;;;;11.55;10.27;;;18.10;99.90;;;;;;5030173;28;20411;-72
2022/07/24 06:03:03;;;;;;;11.70;9.27;;;18.10;99.90;;;;;;5028841;28;20510;-72
2022/07/24 06:05:29;;;;;;;10.48;9.57;;;18.20;99.90;;;;;;4999698;28;20510;-72
2022/07/24 06:07:54;;;;;;;10.75;9.65;;;18.30;99.90;;;;;;5027742;28;20103;-72
2022/07/24 06:10:20;;;;;;;11.75;9.77;;;18.40;99.90;;;;;;4994563;28;20122;-72
2022/07/24 06:12:46;;;;;;;10.90;9.80;;;18.60;99.90;;;;;;4984456;28;20450;-72
2022/07/24 06:15:12;;;;;;;10.52;9.27;;;18.70;99.90;;;;;;4986370;28;20425;-72
2022/07/24 06:17:38;;;;;;;10.07;9.18;;;18.80;99.90;;;;;;5011523;28;20033;-73
2022/07/24 06:20:05;;;;;;;10.65;9.65;;;19.00;99.90;;;;;;5027733;28;20050;-73
2022/07/24 06:22:31;;;;;;;10.40;9.38;;;19.10;99.90;;;;;;4975204;28;20073;-73
2022/07/24 06:24:57;;;;;;;11.35;10.25;;;19.20;99.90;;;;;;4993512;28;20446;-73
2022/07/24 06:27:22;;;;;;;11.77;10.57;;;19.30;99.90;;;;;;5031290;28;20073;-73
2022/07/24 06:29:48;;;;;;;10.73;9.73;;;19.40;99.90;;;;;;4998772;28;20038;-73
2022/07/24 06:32:14;;;;;;;11.68;10.55;;;19.50;99.90;;;;;;4998143;28;20042;-73
2022/07/24 06:34:39;;;;;;;11.82;10.73;;;19.70;99.90;;;;;;5027297;28;20092;-73
2022/07/24 06:37:05;;;;;;;12.05;10.82;;;19.80;99.90;;;;;;5027894;28;20038;-73
2022/07/24 06:39:31;;;;;;;11.55;10.30;;;20.00;99.90;;;;;;5028544;28;20104;-73
2022/07/24 06:41:56;;;;;;;12.55;11.25;;;20.10;99.90;;;;;;5030004;28;20034;-73
2022/07/24 06:44:22;;;;;;;12.65;11.05;;;20.20;99.90;;;;;;5023322;28;20084;-73
2022/07/24 06:46:48;;;;;;;11.48;10.30;;;20.30;99.90;;;;;;4996117;28;20034;-72
2022/07/24 06:49:14;;;;;;;20.23;17.38;;;20.40;99.90;;;;;;4978873;28;20042;-73
2022/07/24 06:51:39;;;;;;;13.38;12.07;;;20.60;99.90;;;;;;4994785;28;20032;-72
2022/07/24 06:54:05;;;;;;;12.70;11.38;;;20.70;99.90;;;;;;4992174;28;20377;-73
2022/07/24 06:56:31;;;;;;;12.18;10.90;;;20.80;99.90;;;;;;5027313;28;20080;-73
2022/07/24 06:58:58;;;;;;;12.10;11.00;;;20.90;99.90;;;;;;5015920;28;20069;-73
2022/07/24 07:01:25;;;;;;;11.70;10.60;;;21.00;99.90;;;;;;4993988;28;20073;-73
2022/07/24 07:03:52;;;;;;;13.27;11.95;;;21.20;99.90;;;;;;4995709;28;20465;-73
2022/07/24 07:06:19;;;;;;;14.65;11.77;;;21.30;99.90;;;;;;5009923;28;20516;-73
2022/07/24 07:08:44;;;;;;;12.57;11.27;;;21.40;99.90;;;;;;5028896;28;20041;-73
2022/07/24 07:11:10;;;;;;;15.18;11.50;;;21.50;99.90;;;;;;5027534;28;20092;-73
2022/07/24 07:13:36;;;;;;;12.95;11.70;;;21.70;99.90;;;;;;5026719;28;20038;-73
2022/07/24 07:16:02;;;;;;;14.00;12.35;;;21.80;99.90;;;;;;5027667;28;20112;-74
2022/07/24 07:18:27;;;;;;;10.90;9.80;;;21.90;99.90;;;;;;4997187;28;20037;-73
2022/07/24 07:20:53;;;;;;;12.18;10.98;;;22.00;99.90;;;;;;5029357;28;20042;-73
2022/07/24 07:23:22;;;;;;;18.85;12.48;;;22.20;99.90;;;;;;5032604;28;20046;-73
2022/07/24 07:25:48;;;;;;;12.80;11.60;;;22.30;99.90;;;;;;4994857;28;20467;-73
2022/07/24 07:28:14;;;;;;;13.15;11.85;;;22.40;99.90;;;;;;4992597;28;20479;-73
2022/07/24 07:30:39;;;;;;;13.10;11.20;;;22.50;99.90;;;;;;5008400;28;20403;-73
2022/07/24 07:33:05;;;;;;;12.27;10.88;;;22.60;99.90;;;;;;4992815;28;20382;-73
2022/07/24 07:35:31;;;;;;;11.70;10.38;;;22.80;99.90;;;;;;5029082;28;20037;-73
2022/07/24 07:37:57;;;;;;;10.93;9.70;;;22.90;99.90;;;;;;5011091;28;20046;-75
2022/07/24 07:40:23;;;;;;;10.27;9.10;;;23.00;99.90;;;;;;4994390;28;20045;-74
2022/07/24 07:42:49;;;;;;;11.57;9.50;;;23.20;99.90;;;;;;5009870;28;20151;-74
2022/07/24 07:45:15;;;;;;;10.38;9.23;;;23.40;99.90;;;;;;5008788;28;20077;-74
2022/07/24 07:47:41;;;;;;;44.17;38.92;;;23.60;99.90;;;;;;5026481;28;20048;-74
2022/07/24 07:50:07;;;;;;;13.60;12.27;;;23.70;99.90;;;;;;5027632;28;20049;-74
2022/07/24 07:52:32;;;;;;;11.20;8.70;;;23.90;99.90;;;;;;4991752;28;20451;-74
2022/07/24 07:54:58;;;;;;;9.10;7.32;;;24.00;99.90;;;;;;5029177;28;20091;-74
2022/07/24 07:57:24;;;;;;;9.10;6.45;;;24.20;99.90;;;;;;5026318;28;20045;-74
2022/07/24 07:59:49;;;;;;;7.55;5.15;;;24.20;99.90;;;;;;5026857;28;20105;-73
2022/07/24 08:02:15;;;;;;;7.10;4.90;;;24.30;99.70;;;;;;4995874;28;20054;-74
2022/07/24 08:04:41;;;;;;;5.30;4.28;;;24.50;99.30;;;;;;5029034;28;20092;-74
2022/07/24 08:07:07;;;;;;;7.18;3.95;;;24.70;98.50;;;;;;5027931;28;20053;-74
2022/07/24 08:09:33;;;;;;;4.60;3.65;;;24.90;98.50;;;;;;5028134;28;20045;-74
2022/07/24 08:11:59;;;;;;;4.32;3.13;;;25.20;98.40;;;;;;4993516;28;20034;-74
2022/07/24 08:14:24;;;;;;;3.67;2.95;;;25.50;96.00;;;;;;4993974;28;20044;-73
2022/07/24 08:16:50;;;;;;;3.47;3.00;;;25.90;96.30;;;;;;5030498;28;20119;-74
2022/07/24 08:19:16;;;;;;;3.78;3.05;;;26.20;95.60;;;;;;5025967;28;20049;-74
2022/07/24 08:21:41;;;;;;;4.57;2.75;;;26.40;93.90;;;;;;5026803;28;20480;-74
2022/07/24 08:24:07;;;;;;;4.63;3.05;;;26.70;92.60;;;;;;4990670;28;20067;-74
2022/07/24 08:26:33;;;;;;;4.00;2.78;;;27.10;91.30;;;;;;5029478;28;20038;-74
2022/07/24 08:28:59;;;;;;;6.72;6.03;;;27.30;90.10;;;;;;5022903;28;20037;-74
2022/07/24 08:31:26;;;;;;;4.20;3.83;;;27.30;88.40;;;;;;4984433;28;20050;-74
2022/07/24 08:33:51;;;;;;;3.90;3.08;;;27.50;88.20;;;;;;4959649;28;20490;-74
2022/07/24 08:36:17;;;;;;;4.10;2.78;;;27.60;87.50;;;;;;4995429;28;20038;-74
2022/07/24 08:38:43;;;;;;;4.45;2.85;;;27.90;84.60;;;;;;4991837;28;20026;-74
2022/07/24 08:41:09;;;;;;;3.22;2.00;;;27.80;82.30;;;;;;5027171;28;20050;-74
2022/07/24 08:43:34;;;;;;;2.55;2.10;;;27.70;80.60;;;;;;5007354;28;20098;-74
2022/07/24 08:46:02;;;;;;;3.20;1.90;;;27.70;80.60;;;;;;4992230;28;20088;-74
2022/07/24 08:48:28;;;;;;;2.85;1.75;;;27.80;79.10;;;;;;4976323;28;20489;-74
2022/07/24 08:50:54;;;;;;;2.45;1.77;;;27.70;78.90;;;;;;4975039;28;20065;-74
2022/07/24 08:53:22;;;;;;;2.42;1.60;;;27.70;77.00;;;;;;5024692;28;20111;-74
2022/07/24 08:55:48;;;;;;;2.70;1.98;;;28.00;76.10;;;;;;5003183;28;20045;-74
2022/07/24 08:58:14;;;;;;;1.90;1.40;;;28.60;77.40;;;;;;5013435;28;20053;-74
2022/07/24 09:00:40;;;;;;;3.25;2.00;;;29.20;76.00;;;;;;5023874;28;20048;-73
2022/07/24 09:03:07;;;;;;;1.75;1.50;;;29.60;73.40;;;;;;5001515;28;20049;-73
2022/07/24 09:05:34;;;;;;;1.80;1.60;;;29.70;71.60;;;;;;5023737;28;20046;-74
2022/07/24 09:08:11;;;;;;;2.60;1.48;;;30.00;70.50;;;;;;5029238;28;20454;-74
2022/07/24 09:10:36;;;;;;;3.17;1.52;;;30.20;68.50;;;;;;4975454;28;20049;-73
2022/07/24 09:13:16;;;;;;;2.33;1.52;;;30.20;67.10;;;;;;5027269;28;20030;-73
2022/07/24 09:15:51;;;;;;;2.10;1.60;;;30.30;63.30;;;;;;5022684;28;20051;-73
2022/07/24 09:18:33;;;;;;;2.13;1.55;;;30.50;62.60;;;;;;5008563;28;20054;-73
2022/07/24 09:21:12;;;;;;;2.08;1.40;;;30.80;65.80;;;;;;5024451;28;20502;-74
2022/07/24 09:23:39;;;;;;;2.08;1.50;;;30.80;66.40;;;;;;5030536;28;20050;-74
2022/07/24 09:26:04;;;;;;;2.50;1.40;;;30.90;64.90;;;;;;4990143;28;20042;-73
2022/07/24 09:28:52;;;;;;;2.17;1.55;;;31.10;63.40;;;;;;5000177;28;20039;-74
2022/07/24 09:31:18;;;;;;;3.28;1.67;;;31.20;60.00;;;;;;4996119;28;20042;-73
2022/07/24 09:33:44;;;;;;;2.83;1.67;;;31.20;60.90;;;;;;5028391;28;20438;-73
2022/07/24 09:36:15;;;;;;;1.50;1.23;;;31.10;59.70;;;;;;4995418;28;20120;-74
2022/07/24 09:38:50;;;;;;;2.03;1.35;;;30.60;60.00;;;;;;4990651;28;20050;-74
2022/07/24 09:41:24;;;;;;;5.30;3.42;;;30.30;60.30;;;;;;4994923;28;20479;-74
2022/07/24 09:44:00;;;;;;;3.20;1.52;;;30.00;61.90;;;;;;5030177;28;20053;-74
2022/07/24 09:46:26;;;;;;;1.55;1.10;;;30.20;62.00;;;;;;4993468;28;20052;-74
2022/07/24 09:48:58;;;;;;;2.33;1.15;;;30.60;61.90;;;;;;4999865;28;20042;-75
2022/07/24 09:51:26;;;;;;;2.40;1.73;;;31.00;61.00;;;;;;4979393;28;20045;-75
2022/07/24 09:53:59;;;;;;;2.50;1.55;;;31.10;60.50;;;;;;5027832;28;20056;-74
2022/07/24 09:56:25;;;;;;;;;;;31.10;59.70;;;;;;4996613;28;20038;-74
2022/07/24 09:58:53;;;;;;;2.65;1.25;;;31.20;59.50;;;;;;4990188;28;20405;-74
2022/07/24 10:01:22;;;;;;;3.17;1.25;;;31.10;58.60;;;;;;4996660;28;20635;-74
2022/07/24 10:03:49;;;;;;;2.25;1.25;;;31.20;58.20;;;;;;5030981;28;20046;-75
2022/07/24 10:06:17;;;;;;;1.48;1.20;;;31.40;59.10;;;;;;5030141;28;20124;-74
2022/07/24 10:08:45;;;;;;;2.05;1.08;;;31.50;57.70;;;;;;4996082;28;20046;-74
2022/07/24 10:11:13;;;;;;;5.07;1.38;;;31.70;56.50;;;;;;4992498;28;20046;-73
2022/07/24 10:13:39;;;;;;;3.38;1.67;;;31.80;55.90;;;;;;4996630;28;20030;-75
2022/07/24 10:16:14;;;;;;;1.83;1.13;;;31.90;55.60;;;;;;4994581;28;20629;-74
2022/07/24 10:19:14;;;;;;;2.35;1.17;;;32.00;54.70;;;;;;5028752;28;20037;-73
2022/07/24 10:21:52;;;;;;;25.95;23.90;;;31.80;53.40;;;;;;4954079;28;20515;-74
2022/07/24 10:24:36;;;;;;;87.47;79.38;;;31.70;54.90;;;;;;5006778;28;20121;-74
2022/07/24 10:27:04;;;;;;;3.75;3.45;;;31.90;53.90;;;;;;5013283;28;20052;-73
2022/07/24 10:29:33;;;;;;;2.45;1.55;;;31.90;55.40;;;;;;4995686;28;20406;-74
2022/07/24 10:32:00;;;;;;;2.45;1.33;;;31.90;54.10;;;;;;4994881;28;20538;-73
2022/07/24 10:34:47;;;;;;;3.55;1.42;;;31.90;53.80;;;;;;4998695;28;20034;-75
2022/07/24 10:37:33;;;;;;;1.70;1.30;;;31.90;54.90;;;;;;5026976;28;20421;-74
2022/07/24 10:40:23;;;;;;;2.75;1.20;;;31.90;53.80;;;;;;4977271;28;20046;-74
2022/07/24 10:43:08;;;;;;;1.55;1.23;;;32.10;53.90;;;;;;5030803;28;20046;-74
2022/07/24 10:46:08;;;;;;;2.42;1.10;;;32.20;54.20;;;;;;4994295;28;20089;-74
2022/07/24 10:48:45;;;;;;;2.03;1.20;;;32.20;53.20;;;;;;4975744;28;20053;-73
2022/07/24 10:51:15;;;;;;;2.28;1.20;;;32.30;52.60;;;;;;4997245;28;20046;-74
2022/07/24 10:53:51;;;;;;;1.77;1.23;;;32.00;52.90;;;;;;5028456;28;20042;-74
2022/07/24 10:56:18;;;;;;;3.40;1.13;;;31.60;53.10;;;;;;5028127;28;20057;-73
2022/07/24 10:59:07;;;;;;;12.63;11.52;;;31.40;53.70;;;;;;4993986;28;20034;-73
2022/07/24 11:01:44;;;;;;;52.35;47.28;;;31.20;53.60;;;;;;4990292;28;20065;-73
2022/07/24 11:04:19;;;;;;;3.97;3.10;;;31.20;56.30;;;;;;5007901;28;20088;-74
2022/07/24 11:06:46;;;;;;;2.33;1.40;;;31.70;55.80;;;;;;4992372;28;20073;-74
2022/07/24 11:09:13;;;;;;;2.33;1.30;;;32.00;54.60;;;;;;5029187;28;20042;-73
2022/07/24 11:12:03;;;;;;;1.85;1.00;;;32.40;54.70;;;;;;4994658;28;20042;-73
2022/07/24 11:14:38;;;;;;;2.70;1.30;;;32.80;53.90;;;;;;4996550;28;20107;-74
2022/07/24 11:17:36;;;;;;;2.13;1.23;;;32.90;50.60;;;;;;5028597;28;20057;-74
2022/07/24 11:20:02;;;;;;;1.60;1.50;;;33.10;52.20;;;;;;4998900;28;20038;-74
2022/07/24 11:22:58;;;;;;;4.28;1.45;;;33.10;52.00;;;;;;4997311;28;20037;-74
2022/07/24 11:25:30;;;;;;;2.47;1.02;;;33.30;52.50;;;;;;4978630;28;20054;-73
2022/07/24 11:28:12;;;;;;;1.70;0.80;;;33.30;50.20;;;;;;5028090;28;20124;-73
2022/07/24 11:30:43;;;;;;;3.83;1.10;;;33.40;49.60;;;;;;4990939;28;20065;-73
2022/07/24 11:33:11;;;;;;;3.50;1.30;;;33.40;49.80;;;;;;4991981;28;20066;-73
2022/07/24 11:35:38;;;;;;;3.03;1.45;;;33.40;51.60;;;;;;5028991;28;20088;-73
2022/07/24 11:38:06;;;;;;;2.05;1.50;;;33.50;50.60;;;;;;5025774;28;20077;-73
2022/07/24 11:40:33;;;;;;;1.77;1.08;;;33.60;49.80;;;;;;5004611;28;20062;-73
2022/07/24 11:43:01;;;;;;;2.00;0.80;;;33.70;48.00;;;;;;4993574;28;20083;-72
2022/07/24 11:45:27;;;;;;;38.00;34.70;;;33.70;48.20;;;;;;5026361;28;20037;-73
2022/07/24 11:47:56;;;;;;;10.10;3.45;;;33.70;47.80;;;;;;4977371;28;20375;-73
2022/07/24 11:50:23;;;;;;;4.47;2.20;;;33.70;47.20;;;;;;4995244;28;20111;-73
2022/07/24 11:52:49;;;;;;;1.67;1.15;;;33.60;47.00;;;;;;5026614;28;20056;-73
2022/07/24 11:55:17;;;;;;;3.55;1.42;;;33.50;47.40;;;;;;4993481;28;20029;-72
2022/07/24 11:57:47;;;;;;;1.38;1.02;;;33.50;47.20;;;;;;5008991;28;20045;-72
2022/07/24 12:00:16;;;;;;;3.40;0.93;;;33.40;46.60;;;;;;4994064;28;20125;-73
2022/07/24 12:02:54;;;;;;;2.20;1.10;;;33.50;46.90;;;;;;4978359;28;20050;-73
2022/07/24 12:05:33;;;;;;;2.03;1.10;;;33.70;46.50;;;;;;4995008;28;20045;-73
2022/07/24 12:08:00;;;;;;;12.00;10.45;;;33.80;46.50;;;;;;5011724;28;20513;-72
2022/07/24 12:10:27;;;;;;;1.35;1.13;;;33.90;47.10;;;;;;4997516;28;20047;-72
2022/07/24 12:12:54;;;;;;;3.00;1.10;;;34.00;45.60;;;;;;4998952;28;20041;-73
2022/07/24 12:15:21;;;;;;;1.52;0.93;;;33.80;45.00;;;;;;4993192;28;20046;-73
2022/07/24 12:18:00;;;;;;;2.17;1.10;;;33.50;47.00;;;;;;4994381;28;20423;-73
2022/07/24 12:20:37;;;;;;;1.85;1.38;;;33.60;47.90;;;;;;4983466;28;20045;-73
2022/07/24 12:23:07;;;;;;;5.85;1.35;;;33.70;47.20;;;;;;4996553;28;20424;-73
2022/07/24 12:25:33;;;;;;;4.35;1.40;;;33.60;45.70;;;;;;5025905;28;20049;-73
2022/07/24 12:28:06;;;;;;;1.52;1.10;;;33.40;46.10;;;;;;5010494;28;20046;-73
2022/07/24 12:30:33;;;;;;;;;;;33.40;46.50;;;;;;5023434;28;20042;-73
2022/07/24 12:33:08;;;;;;;1.42;1.00;;;33.40;46.50;;;;;;4980144;28;20274;-73
2022/07/24 12:35:54;;;;;;;3.03;1.30;;;33.50;47.00;;;;;;4995146;28;20053;-73
2022/07/24 12:38:29;;;;;;;2.17;1.40;;;33.70;47.00;;;;;;4988676;28;20046;-73
2022/07/24 12:41:14;;;;;;;2.53;1.60;;;33.70;47.00;;;;;;5020009;28;20050;-73
2022/07/24 12:43:48;;;;;;;4.18;1.80;;;33.70;47.00;;;;;;4992423;28;20049;-73
2022/07/24 12:46:14;;;;;;;2.35;1.38;;;33.80;47.10;;;;;;5008982;28;20152;-73